sensor_id;sensor_type;location;lat;lon;timestamp;temperature;humidity
7159;DHT22;63175;52.374;13.132;2023-11-18T00:01:25;5.30;99.90
7159;DHT22;63175;52.374;13.132;2023-11-18T00:03:53;5.20;99.90
7159;DHT22;63175;52.374;13.132;2023-11-18T00:06:20;5.20;99.90
7159;DHT22;63175;52.374;13.132;2023-11-18T00:08:47;5.20;99.90
7159;DHT22;63175;52.374;13.132;2023-11-18T00:11:15;5.30;99.90
7159;DHT22;63175;52.374;13.132;2023-11-18T00:13:42;5.30;99.90
7159;DHT22;63175;52.374;13.132;2023-11-18T00:16:09;5.30;99.90
7159;DHT22;63175;52.374;13.132;2023-11-18T00:18:39;5.30;99.90
7159;DHT22;63175;52.374;13.132;2023-11-18T00:21:06;5.30;99.90
7159;DHT22;63175;52.374;13.132;2023-11-18T00:23:33;5.30;99.90
7159;DHT22;63175;52.374;13.132;2023-11-18T00:26:00;5.30;99.90
7159;DHT22;63175;52.374;13.132;2023-11-18T00:28:27;5.30;99.90
7159;DHT22;63175;52.374;13.132;2023-11-18T00:30:54;5.30;99.90
7159;DHT22;63175;52.374;13.132;2023-11-18T00:33:21;5.30;99.90
7159;DHT22;63175;52.374;13.132;2023-11-18T00:35:49;5.30;99.90
7159;DHT22;63175;52.374;13.132;2023-11-18T00:38:16;5.30;99.90
7159;DHT22;63175;52.374;13.132;2023-11-18T00:40:43;5.30;99.90
7159;DHT22;63175;52.374;13.132;2023-11-18T00:43:10;5.30;99.90
7159;DHT22;63175;52.374;13.132;2023-11-18T00:45:37;5.30;99.90
7159;DHT22;63175;52.374;13.132;2023-11-18T00:48:05;5.30;99.90
7159;DHT22;63175;52.374;13.132;2023-11-18T00:50:31;5.30;99.90
7159;DHT22;63175;52.374;13.132;2023-11-18T00:53:00;5.30;99.90
7159;DHT22;63175;52.374;13.132;2023-11-18T00:55:27;5.30;99.90
7159;DHT22;63175;52.374;13.132;2023-11-18T00:57:54;5.30;99.90
7159;DHT22;63175;52.374;13.132;2023-11-18T01:00:21;5.30;99.90
7159;DHT22;63175;52.374;13.132;2023-11-18T01:02:48;5.30;99.90
7159;DHT22;63175;52.374;13.132;2023-11-18T01:05:16;5.20;99.90
7159;DHT22;63175;52.374;13.132;2023-11-18T01:07:42;5.30;99.90
7159;DHT22;63175;52.374;13.132;2023-11-18T01:10:11;5.30;99.90
7159;DHT22;63175;52.374;13.132;2023-11-18T01:12:39;5.30;99.90
7159;DHT22;63175;52.374;13.132;2023-11-18T01:15:07;5.30;99.90
7159;DHT22;63175;52.374;13.132;2023-11-18T01:17:35;5.20;99.90
7159;DHT22;63175;52.374;13.132;2023-11-18T01:20:03;5.30;99.90
7159;DHT22;63175;52.374;13.132;2023-11-18T01:22:35;5.30;99.90
7159;DHT22;63175;52.374;13.132;2023-11-18T01:25:02;5.20;99.90
7159;DHT22;63175;52.374;13.132;2023-11-18T01:27:30;5.20;99.90
7159;DHT22;63175;52.374;13.132;2023-11-18T01:29:58;5.20;99.90
7159;DHT22;63175;52.374;13.132;2023-11-18T01:32:25;5.20;99.90
7159;DHT22;63175;52.374;13.132;2023-11-18T01:34:55;5.20;99.90
7159;DHT22;63175;52.374;13.132;2023-11-18T01:37:22;5.20;99.90
7159;DHT22;63175;52.374;13.132;2023-11-18T01:39:50;5.20;99.90
7159;DHT22;63175;52.374;13.132;2023-11-18T01:42:16;5.30;99.90
7159;DHT22;63175;52.374;13.132;2023-11-18T01:44:45;5.30;99.90
7159;DHT22;63175;52.374;13.132;2023-11-18T01:47:12;5.30;99.90
7159;DHT22;63175;52.374;13.132;2023-11-18T01:49:39;5.30;99.90
7159;DHT22;63175;52.374;13.132;2023-11-18T01:52:07;5.30;99.90
7159;DHT22;63175;52.374;13.132;2023-11-18T01:54:36;5.30;99.90
7159;DHT22;63175;52.374;13.132;2023-11-18T01:57:05;5.30;99.90
7159;DHT22;63175;52.374;13.132;2023-11-18T01:59:32;5.20;99.90
7159;DHT22;63175;52.374;13.132;2023-11-18T02:02:01;5.20;99.90
7159;DHT22;63175;52.374;13.132;2023-11-18T02:04:28;5.20;99.90
7159;DHT22;63175;52.374;13.132;2023-11-18T02:06:56;5.30;99.90
7159;DHT22;63175;52.374;13.132;2023-11-18T02:09:24;5.30;99.90
7159;DHT22;63175;52.374;13.132;2023-11-18T02:11:58;5.30;99.90
7159;DHT22;63175;52.374;13.132;2023-11-18T02:14:27;5.30;99.90
7159;DHT22;63175;52.374;13.132;2023-11-18T02:16:58;5.30;99.90
7159;DHT22;63175;52.374;13.132;2023-11-18T02:19:27;5.30;99.90
7159;DHT22;63175;52.374;13.132;2023-11-18T02:21:55;5.30;99.90
7159;DHT22;63175;52.374;13.132;2023-11-18T02:24:27;5.30;99.90
7159;DHT22;63175;52.374;13.132;2023-11-18T02:26:59;5.30;99.90
7159;DHT22;63175;52.374;13.132;2023-11-18T02:29:27;5.30;99.90
7159;DHT22;63175;52.374;13.132;2023-11-18T02:31:59;5.30;99.90
7159;DHT22;63175;52.374;13.132;2023-11-18T02:34:30;5.30;99.90
7159;DHT22;63175;52.374;13.132;2023-11-18T02:37:02;5.30;99.90
7159;DHT22;63175;52.374;13.132;2023-11-18T02:39:35;5.30;99.90
7159;DHT22;63175;52.374;13.132;2023-11-18T02:42:07;5.30;99.90
7159;DHT22;63175;52.374;13.132;2023-11-18T02:44:35;5.30;99.90
7159;DHT22;63175;52.374;13.132;2023-11-18T02:47:03;5.30;99.90
7159;DHT22;63175;52.374;13.132;2023-11-18T02:49:31;5.30;99.90
7159;DHT22;63175;52.374;13.132;2023-11-18T02:51:58;5.30;99.90
7159;DHT22;63175;52.374;13.132;2023-11-18T02:54:25;5.30;99.90
7159;DHT22;63175;52.374;13.132;2023-11-18T02:56:52;5.30;99.90
7159;DHT22;63175;52.374;13.132;2023-11-18T02:59:20;5.30;99.90
7159;DHT22;63175;52.374;13.132;2023-11-18T03:01:48;5.30;99.90
7159;DHT22;63175;52.374;13.132;2023-11-18T03:04:15;5.30;99.90
7159;DHT22;63175;52.374;13.132;2023-11-18T03:06:44;5.30;99.90
7159;DHT22;63175;52.374;13.132;2023-11-18T03:09:11;5.30;99.90
7159;DHT22;63175;52.374;13.132;2023-11-18T03:11:39;5.30;99.90
7159;DHT22;63175;52.374;13.132;2023-11-18T03:14:06;5.30;99.90
7159;DHT22;63175;52.374;13.132;2023-11-18T03:16:37;5.30;99.90
7159;DHT22;63175;52.374;13.132;2023-11-18T03:19:04;5.30;99.90
7159;DHT22;63175;52.374;13.132;2023-11-18T03:21:32;5.30;99.90
7159;DHT22;63175;52.374;13.132;2023-11-18T03:23:59;5.30;99.90
7159;DHT22;63175;52.374;13.132;2023-11-18T03:26:26;5.30;99.90
7159;DHT22;63175;52.374;13.132;2023-11-18T03:28:52;5.30;99.90
7159;DHT22;63175;52.374;13.132;2023-11-18T03:31:19;5.30;99.90
7159;DHT22;63175;52.374;13.132;2023-11-18T03:33:47;5.30;99.90
7159;DHT22;63175;52.374;13.132;2023-11-18T03:36:14;5.30;99.90
7159;DHT22;63175;52.374;13.132;2023-11-18T03:38:43;5.30;99.90
7159;DHT22;63175;52.374;13.132;2023-11-18T03:41:10;5.30;99.90
7159;DHT22;63175;52.374;13.132;2023-11-18T03:43:38;5.30;99.90
7159;DHT22;63175;52.374;13.132;2023-11-18T03:46:05;5.20;99.90
7159;DHT22;63175;52.374;13.132;2023-11-18T03:48:33;5.20;99.90
7159;DHT22;63175;52.374;13.132;2023-11-18T03:51:01;5.20;99.90
7159;DHT22;63175;52.374;13.132;2023-11-18T03:53:29;5.20;99.90
7159;DHT22;63175;52.374;13.132;2023-11-18T03:55:56;5.20;99.90
7159;DHT22;63175;52.374;13.132;2023-11-18T03:58:23;5.20;99.90
7159;DHT22;63175;52.374;13.132;2023-11-18T04:00:50;5.20;99.90
7159;DHT22;63175;52.374;13.132;2023-11-18T04:03:16;5.20;99.90
7159;DHT22;63175;52.374;13.132;2023-11-18T04:05:44;5.20;99.90
7159;DHT22;63175;52.374;13.132;2023-11-18T04:08:12;5.10;99.90
7159;DHT22;63175;52.374;13.132;2023-11-18T04:10:39;5.10;99.90
7159;DHT22;63175;52.374;13.132;2023-11-18T04:13:06;5.10;99.90
7159;DHT22;63175;52.374;13.132;2023-11-18T04:15:32;5.10;99.90
7159;DHT22;63175;52.374;13.132;2023-11-18T04:18:00;5.10;99.90
7159;DHT22;63175;52.374;13.132;2023-11-18T04:20:28;5.10;99.90
7159;DHT22;63175;52.374;13.132;2023-11-18T04:22:54;5.10;99.90
7159;DHT22;63175;52.374;13.132;2023-11-18T04:25:23;5.10;99.90
7159;DHT22;63175;52.374;13.132;2023-11-18T04:27:50;5.10;99.90
7159;DHT22;63175;52.374;13.132;2023-11-18T04:30:17;5.10;99.90
7159;DHT22;63175;52.374;13.132;2023-11-18T04:32:44;5.10;99.90
7159;DHT22;63175;52.374;13.132;2023-11-18T04:35:11;5.00;99.90
7159;DHT22;63175;52.374;13.132;2023-11-18T04:37:38;5.10;99.90
7159;DHT22;63175;52.374;13.132;2023-11-18T04:40:08;5.00;99.90
7159;DHT22;63175;52.374;13.132;2023-11-18T04:42:39;5.00;99.90
7159;DHT22;63175;52.374;13.132;2023-11-18T04:45:06;5.00;99.90
7159;DHT22;63175;52.374;13.132;2023-11-18T04:47:35;5.00;99.90
7159;DHT22;63175;52.374;13.132;2023-11-18T04:50:03;5.00;99.90
7159;DHT22;63175;52.374;13.132;2023-11-18T04:52:31;5.00;99.90
7159;DHT22;63175;52.374;13.132;2023-11-18T04:55:00;5.00;99.90
7159;DHT22;63175;52.374;13.132;2023-11-18T04:57:28;5.00;99.90
7159;DHT22;63175;52.374;13.132;2023-11-18T04:59:56;5.00;99.90
7159;DHT22;63175;52.374;13.132;2023-11-18T05:02:23;5.00;99.90
7159;DHT22;63175;52.374;13.132;2023-11-18T05:04:50;5.00;99.90
7159;DHT22;63175;52.374;13.132;2023-11-18T05:07:17;5.00;99.90
7159;DHT22;63175;52.374;13.132;2023-11-18T05:09:44;5.00;99.90
7159;DHT22;63175;52.374;13.132;2023-11-18T05:12:11;5.00;99.90
7159;DHT22;63175;52.374;13.132;2023-11-18T05:14:37;5.00;99.90
7159;DHT22;63175;52.374;13.132;2023-11-18T05:17:06;5.10;99.90
7159;DHT22;63175;52.374;13.132;2023-11-18T05:19:33;5.10;99.90
7159;DHT22;63175;52.374;13.132;2023-11-18T05:22:00;5.10;99.90
7159;DHT22;63175;52.374;13.132;2023-11-18T05:24:27;5.10;99.90
7159;DHT22;63175;52.374;13.132;2023-11-18T05:26:54;5.10;99.90
7159;DHT22;63175;52.374;13.132;2023-11-18T05:29:21;5.10;99.90
7159;DHT22;63175;52.374;13.132;2023-11-18T05:31:51;5.10;99.90
7159;DHT22;63175;52.374;13.132;2023-11-18T05:34:19;5.10;99.90
7159;DHT22;63175;52.374;13.132;2023-11-18T05:36:47;5.10;99.90
7159;DHT22;63175;52.374;13.132;2023-11-18T05:39:16;5.10;99.90
7159;DHT22;63175;52.374;13.132;2023-11-18T05:41:45;5.10;99.90
7159;DHT22;63175;52.374;13.132;2023-11-18T05:44:15;5.10;99.90
7159;DHT22;63175;52.374;13.132;2023-11-18T05:46:45;5.10;99.90
7159;DHT22;63175;52.374;13.132;2023-11-18T05:49:13;5.10;99.90
7159;DHT22;63175;52.374;13.132;2023-11-18T05:51:41;5.10;99.90
7159;DHT22;63175;52.374;13.132;2023-11-18T05:54:08;5.10;99.90
7159;DHT22;63175;52.374;13.132;2023-11-18T05:56:36;5.10;99.90
7159;DHT22;63175;52.374;13.132;2023-11-18T05:59:03;5.10;99.90
7159;DHT22;63175;52.374;13.132;2023-11-18T06:01:30;5.10;99.90
7159;DHT22;63175;52.374;13.132;2023-11-18T06:03:57;5.10;99.90
7159;DHT22;63175;52.374;13.132;2023-11-18T06:06:24;5.10;99.90
7159;DHT22;63175;52.374;13.132;2023-11-18T06:08:53;5.10;99.90
7159;DHT22;63175;52.374;13.132;2023-11-18T06:11:20;5.10;99.90
7159;DHT22;63175;52.374;13.132;2023-11-18T06:13:49;5.10;99.90
7159;DHT22;63175;52.374;13.132;2023-11-18T06:16:17;5.10;99.90
7159;DHT22;63175;52.374;13.132;2023-11-18T06:18:46;5.10;99.90
7159;DHT22;63175;52.374;13.132;2023-11-18T06:21:14;5.10;99.90
7159;DHT22;63175;52.374;13.132;2023-11-18T06:23:41;5.10;99.90
7159;DHT22;63175;52.374;13.132;2023-11-18T06:26:09;5.10;99.90
7159;DHT22;63175;52.374;13.132;2023-11-18T06:28:38;5.10;99.90
7159;DHT22;63175;52.374;13.132;2023-11-18T06:31:05;5.10;99.90
7159;DHT22;63175;52.374;13.132;2023-11-18T06:33:36;5.10;99.90
7159;DHT22;63175;52.374;13.132;2023-11-18T06:36:06;5.10;99.90
7159;DHT22;63175;52.374;13.132;2023-11-18T06:38:33;5.00;99.90
7159;DHT22;63175;52.374;13.132;2023-11-18T06:41:01;5.10;99.90
7159;DHT22;63175;52.374;13.132;2023-11-18T06:43:30;5.10;99.90
7159;DHT22;63175;52.374;13.132;2023-11-18T06:46:11;5.10;99.90
7159;DHT22;63175;52.374;13.132;2023-11-18T06:48:39;5.10;99.90
7159;DHT22;63175;52.374;13.132;2023-11-18T06:51:06;5.10;99.90
7159;DHT22;63175;52.374;13.132;2023-11-18T06:53:34;5.10;99.90
7159;DHT22;63175;52.374;13.132;2023-11-18T06:56:01;5.10;99.90
7159;DHT22;63175;52.374;13.132;2023-11-18T06:58:29;5.10;99.90
7159;DHT22;63175;52.374;13.132;2023-11-18T07:00:56;5.10;99.90
7159;DHT22;63175;52.374;13.132;2023-11-18T07:03:23;5.10;99.90
7159;DHT22;63175;52.374;13.132;2023-11-18T07:05:50;5.10;99.90
7159;DHT22;63175;52.374;13.132;2023-11-18T07:08:17;5.10;99.90
7159;DHT22;63175;52.374;13.132;2023-11-18T07:10:43;5.10;99.90
7159;DHT22;63175;52.374;13.132;2023-11-18T07:13:11;5.10;99.90
7159;DHT22;63175;52.374;13.132;2023-11-18T07:15:40;5.10;99.90
7159;DHT22;63175;52.374;13.132;2023-11-18T07:18:07;5.10;99.90
7159;DHT22;63175;52.374;13.132;2023-11-18T07:20:34;5.20;99.90
7159;DHT22;63175;52.374;13.132;2023-11-18T07:23:01;5.20;99.90
7159;DHT22;63175;52.374;13.132;2023-11-18T07:25:28;5.20;99.90
7159;DHT22;63175;52.374;13.132;2023-11-18T07:27:55;5.20;99.90
7159;DHT22;63175;52.374;13.132;2023-11-18T07:30:22;5.20;99.90
7159;DHT22;63175;52.374;13.132;2023-11-18T07:32:52;5.30;99.90
7159;DHT22;63175;52.374;13.132;2023-11-18T07:35:19;5.30;99.90
7159;DHT22;63175;52.374;13.132;2023-11-18T07:37:46;5.40;99.90
7159;DHT22;63175;52.374;13.132;2023-11-18T07:40:12;5.40;99.90
7159;DHT22;63175;52.374;13.132;2023-11-18T07:42:47;5.40;99.90
7159;DHT22;63175;52.374;13.132;2023-11-18T07:45:14;5.40;99.90
7159;DHT22;63175;52.374;13.132;2023-11-18T07:47:44;5.30;99.90
7159;DHT22;63175;52.374;13.132;2023-11-18T07:50:12;5.30;99.90
7159;DHT22;63175;52.374;13.132;2023-11-18T07:52:39;5.30;99.90
7159;DHT22;63175;52.374;13.132;2023-11-18T07:55:07;5.30;99.90
7159;DHT22;63175;52.374;13.132;2023-11-18T07:57:39;5.30;99.90
7159;DHT22;63175;52.374;13.132;2023-11-18T08:00:06;5.30;99.90
7159;DHT22;63175;52.374;13.132;2023-11-18T08:02:34;5.30;99.90
7159;DHT22;63175;52.374;13.132;2023-11-18T08:05:02;5.40;99.90
7159;DHT22;63175;52.374;13.132;2023-11-18T08:07:33;5.40;99.90
7159;DHT22;63175;52.374;13.132;2023-11-18T08:10:01;5.40;99.90
7159;DHT22;63175;52.374;13.132;2023-11-18T08:12:29;5.40;99.90
7159;DHT22;63175;52.374;13.132;2023-11-18T08:14:56;5.40;99.90
7159;DHT22;63175;52.374;13.132;2023-11-18T08:17:23;5.50;99.90
7159;DHT22;63175;52.374;13.132;2023-11-18T08:19:51;5.50;99.90
7159;DHT22;63175;52.374;13.132;2023-11-18T08:22:18;5.50;99.90
7159;DHT22;63175;52.374;13.132;2023-11-18T08:24:49;5.50;99.90
7159;DHT22;63175;52.374;13.132;2023-11-18T08:27:17;5.50;99.90
7159;DHT22;63175;52.374;13.132;2023-11-18T08:29:44;5.50;99.90
7159;DHT22;63175;52.374;13.132;2023-11-18T08:32:11;5.50;99.90
7159;DHT22;63175;52.374;13.132;2023-11-18T08:34:38;5.50;99.90
7159;DHT22;63175;52.374;13.132;2023-11-18T08:37:06;5.50;99.90
7159;DHT22;63175;52.374;13.132;2023-11-18T08:39:34;5.50;99.90
7159;DHT22;63175;52.374;13.132;2023-11-18T08:42:03;5.50;99.90
7159;DHT22;63175;52.374;13.132;2023-11-18T08:44:33;5.50;99.90
7159;DHT22;63175;52.374;13.132;2023-11-18T08:47:00;5.50;99.90
7159;DHT22;63175;52.374;13.132;2023-11-18T08:49:31;5.50;99.90
7159;DHT22;63175;52.374;13.132;2023-11-18T08:51:59;5.50;99.90
7159;DHT22;63175;52.374;13.132;2023-11-18T08:54:27;5.50;99.90
7159;DHT22;63175;52.374;13.132;2023-11-18T08:57:04;5.50;99.90
7159;DHT22;63175;52.374;13.132;2023-11-18T08:59:45;5.50;99.90
7159;DHT22;63175;52.374;13.132;2023-11-18T09:02:12;5.50;99.90
7159;DHT22;63175;52.374;13.132;2023-11-18T09:04:41;5.40;99.90
7159;DHT22;63175;52.374;13.132;2023-11-18T09:07:09;5.40;99.90
7159;DHT22;63175;52.374;13.132;2023-11-18T09:09:37;5.40;99.90
7159;DHT22;63175;52.374;13.132;2023-11-18T09:12:07;5.40;99.90
7159;DHT22;63175;52.374;13.132;2023-11-18T09:14:35;5.40;99.90
7159;DHT22;63175;52.374;13.132;2023-11-18T09:17:02;5.40;99.90
7159;DHT22;63175;52.374;13.132;2023-11-18T09:19:32;5.50;99.90
7159;DHT22;63175;52.374;13.132;2023-11-18T09:21:59;5.50;99.90
7159;DHT22;63175;52.374;13.132;2023-11-18T09:24:26;5.50;99.90
7159;DHT22;63175;52.374;13.132;2023-11-18T09:26:53;5.50;99.90
7159;DHT22;63175;52.374;13.132;2023-11-18T09:29:21;5.50;99.90
7159;DHT22;63175;52.374;13.132;2023-11-18T09:31:50;5.50;99.90
7159;DHT22;63175;52.374;13.132;2023-11-18T09:34:18;5.60;99.90
7159;DHT22;63175;52.374;13.132;2023-11-18T09:36:53;5.60;99.90
7159;DHT22;63175;52.374;13.132;2023-11-18T09:39:20;5.70;99.90
7159;DHT22;63175;52.374;13.132;2023-11-18T09:42:04;5.70;99.90
7159;DHT22;63175;52.374;13.132;2023-11-18T09:44:36;5.70;99.90
7159;DHT22;63175;52.374;13.132;2023-11-18T09:47:07;5.80;99.90
7159;DHT22;63175;52.374;13.132;2023-11-18T09:49:40;5.80;99.90
7159;DHT22;63175;52.374;13.132;2023-11-18T09:52:08;5.80;99.90
7159;DHT22;63175;52.374;13.132;2023-11-18T09:54:48;5.70;99.90
7159;DHT22;63175;52.374;13.132;2023-11-18T09:57:26;5.70;99.90
7159;DHT22;63175;52.374;13.132;2023-11-18T10:00:00;5.70;99.90
7159;DHT22;63175;52.374;13.132;2023-11-18T10:02:39;5.70;99.90
7159;DHT22;63175;52.374;13.132;2023-11-18T10:05:07;5.70;99.90
7159;DHT22;63175;52.374;13.132;2023-11-18T10:07:39;5.70;99.90
7159;DHT22;63175;52.374;13.132;2023-11-18T10:10:07;5.70;99.90
7159;DHT22;63175;52.374;13.132;2023-11-18T10:12:40;5.70;99.90
7159;DHT22;63175;52.374;13.132;2023-11-18T10:15:11;5.70;99.90
7159;DHT22;63175;52.374;13.132;2023-11-18T10:17:42;5.70;99.90
7159;DHT22;63175;52.374;13.132;2023-11-18T10:20:21;5.70;99.90
7159;DHT22;63175;52.374;13.132;2023-11-18T10:23:05;5.70;99.90
7159;DHT22;63175;52.374;13.132;2023-11-18T10:25:35;5.80;99.90
7159;DHT22;63175;52.374;13.132;2023-11-18T10:28:06;5.80;99.90
7159;DHT22;63175;52.374;13.132;2023-11-18T10:30:44;5.80;99.90
7159;DHT22;63175;52.374;13.132;2023-11-18T10:33:14;5.80;99.90
7159;DHT22;63175;52.374;13.132;2023-11-18T10:35:49;5.80;99.90
7159;DHT22;63175;52.374;13.132;2023-11-18T10:38:18;5.80;99.90
7159;DHT22;63175;52.374;13.132;2023-11-18T10:40:45;5.80;99.90
7159;DHT22;63175;52.374;13.132;2023-11-18T10:43:13;5.80;99.90
7159;DHT22;63175;52.374;13.132;2023-11-18T10:45:43;5.80;99.90
7159;DHT22;63175;52.374;13.132;2023-11-18T10:48:12;5.90;99.90
7159;DHT22;63175;52.374;13.132;2023-11-18T10:50:42;5.90;99.90
7159;DHT22;63175;52.374;13.132;2023-11-18T10:53:11;5.90;99.90
7159;DHT22;63175;52.374;13.132;2023-11-18T10:55:41;5.90;99.90
7159;DHT22;63175;52.374;13.132;2023-11-18T10:58:08;6.00;99.90
7159;DHT22;63175;52.374;13.132;2023-11-18T11:00:47;6.00;99.90
7159;DHT22;63175;52.374;13.132;2023-11-18T11:03:15;6.20;99.90
7159;DHT22;63175;52.374;13.132;2023-11-18T11:05:44;6.40;99.90
7159;DHT22;63175;52.374;13.132;2023-11-18T11:08:14;6.50;99.90
7159;DHT22;63175;52.374;13.132;2023-11-18T11:10:42;6.70;99.90
7159;DHT22;63175;52.374;13.132;2023-11-18T11:13:09;6.90;99.90
7159;DHT22;63175;52.374;13.132;2023-11-18T11:15:41;7.20;99.90
7159;DHT22;63175;52.374;13.132;2023-11-18T11:18:13;7.60;99.90
7159;DHT22;63175;52.374;13.132;2023-11-18T11:20:57;7.80;99.90
7159;DHT22;63175;52.374;13.132;2023-11-18T11:23:35;8.10;99.90
7159;DHT22;63175;52.374;13.132;2023-11-18T11:26:16;8.50;99.90
7159;DHT22;63175;52.374;13.132;2023-11-18T11:28:55;8.70;99.90
7159;DHT22;63175;52.374;13.132;2023-11-18T11:31:31;8.80;99.90
7159;DHT22;63175;52.374;13.132;2023-11-18T11:34:02;8.80;99.90
7159;DHT22;63175;52.374;13.132;2023-11-18T11:36:36;8.80;99.90
7159;DHT22;63175;52.374;13.132;2023-11-18T11:39:05;8.70;99.90
7159;DHT22;63175;52.374;13.132;2023-11-18T11:41:36;8.70;99.90
7159;DHT22;63175;52.374;13.132;2023-11-18T11:44:05;8.60;99.90
7159;DHT22;63175;52.374;13.132;2023-11-18T11:46:33;8.40;99.90
7159;DHT22;63175;52.374;13.132;2023-11-18T11:49:05;8.30;99.90
7159;DHT22;63175;52.374;13.132;2023-11-18T11:51:45;8.20;99.90
7159;DHT22;63175;52.374;13.132;2023-11-18T11:54:18;8.20;99.90
7159;DHT22;63175;52.374;13.132;2023-11-18T11:56:48;8.10;99.90
7159;DHT22;63175;52.374;13.132;2023-11-18T11:59:35;8.20;99.90
7159;DHT22;63175;52.374;13.132;2023-11-18T12:02:03;8.20;99.90
7159;DHT22;63175;52.374;13.132;2023-11-18T12:04:39;8.20;99.90
7159;DHT22;63175;52.374;13.132;2023-11-18T12:07:19;8.20;99.90
7159;DHT22;63175;52.374;13.132;2023-11-18T12:09:49;8.20;99.90
7159;DHT22;63175;52.374;13.132;2023-11-18T12:12:21;8.20;99.90
7159;DHT22;63175;52.374;13.132;2023-11-18T12:14:55;8.50;99.90
7159;DHT22;63175;52.374;13.132;2023-11-18T12:17:25;8.90;99.90
7159;DHT22;63175;52.374;13.132;2023-11-18T12:19:59;9.30;99.90
7159;DHT22;63175;52.374;13.132;2023-11-18T12:23:08;9.60;99.90
7159;DHT22;63175;52.374;13.132;2023-11-18T12:25:41;9.70;99.90
7159;DHT22;63175;52.374;13.132;2023-11-18T12:28:14;9.60;99.90
7159;DHT22;63175;52.374;13.132;2023-11-18T12:30:45;9.50;99.90
7159;DHT22;63175;52.374;13.132;2023-11-18T12:34:00;9.30;99.90
7159;DHT22;63175;52.374;13.132;2023-11-18T12:36:56;9.10;99.90
7159;DHT22;63175;52.374;13.132;2023-11-18T12:46:06;8.50;99.90
7159;DHT22;63175;52.374;13.132;2023-11-18T12:48:43;8.30;99.90
7159;DHT22;63175;52.374;13.132;2023-11-18T12:51:18;8.10;99.90
7159;DHT22;63175;52.374;13.132;2023-11-18T12:53:52;8.00;99.90
7159;DHT22;63175;52.374;13.132;2023-11-18T12:56:25;8.00;99.90
7159;DHT22;63175;52.374;13.132;2023-11-18T12:58:56;7.90;99.90
7159;DHT22;63175;52.374;13.132;2023-11-18T13:01:28;7.80;99.90
7159;DHT22;63175;52.374;13.132;2023-11-18T13:03:59;7.80;99.90
7159;DHT22;63175;52.374;13.132;2023-11-18T13:06:28;7.70;99.90
7159;DHT22;63175;52.374;13.132;2023-11-18T13:09:00;7.60;99.90
7159;DHT22;63175;52.374;13.132;2023-11-18T13:11:34;7.60;99.90
7159;DHT22;63175;52.374;13.132;2023-11-18T13:14:15;7.50;99.90
7159;DHT22;63175;52.374;13.132;2023-11-18T13:16:43;7.50;99.90
7159;DHT22;63175;52.374;13.132;2023-11-18T13:19:11;7.40;99.90
7159;DHT22;63175;52.374;13.132;2023-11-18T13:21:49;7.40;99.90
7159;DHT22;63175;52.374;13.132;2023-11-18T13:24:23;7.30;99.90
7159;DHT22;63175;52.374;13.132;2023-11-18T13:26:54;7.30;99.90
7159;DHT22;63175;52.374;13.132;2023-11-18T13:29:23;7.20;99.90
7159;DHT22;63175;52.374;13.132;2023-11-18T13:31:56;7.20;99.90
7159;DHT22;63175;52.374;13.132;2023-11-18T13:34:23;7.20;99.90
7159;DHT22;63175;52.374;13.132;2023-11-18T13:36:53;7.20;99.90
7159;DHT22;63175;52.374;13.132;2023-11-18T13:39:20;7.20;99.90
7159;DHT22;63175;52.374;13.132;2023-11-18T13:41:50;7.20;99.90
7159;DHT22;63175;52.374;13.132;2023-11-18T13:44:32;7.10;99.90
7159;DHT22;63175;52.374;13.132;2023-11-18T13:47:04;7.10;99.90
7159;DHT22;63175;52.374;13.132;2023-11-18T13:49:38;7.10;99.90
7159;DHT22;63175;52.374;13.132;2023-11-18T13:52:05;7.00;99.90
7159;DHT22;63175;52.374;13.132;2023-11-18T13:54:38;7.00;99.90
7159;DHT22;63175;52.374;13.132;2023-11-18T13:57:13;6.90;99.90
7159;DHT22;63175;52.374;13.132;2023-11-18T13:59:40;6.90;99.90
7159;DHT22;63175;52.374;13.132;2023-11-18T14:02:10;6.90;99.90
7159;DHT22;63175;52.374;13.132;2023-11-18T14:04:39;6.80;99.90
7159;DHT22;63175;52.374;13.132;2023-11-18T14:07:10;6.80;99.90
7159;DHT22;63175;52.374;13.132;2023-11-18T14:09:45;6.80;99.90
7159;DHT22;63175;52.374;13.132;2023-11-18T14:12:19;6.70;99.90
7159;DHT22;63175;52.374;13.132;2023-11-18T14:14:48;6.70;99.90
7159;DHT22;63175;52.374;13.132;2023-11-18T14:17:20;6.70;99.90
7159;DHT22;63175;52.374;13.132;2023-11-18T14:19:55;6.60;99.90
7159;DHT22;63175;52.374;13.132;2023-11-18T14:22:23;6.60;99.90
7159;DHT22;63175;52.374;13.132;2023-11-18T14:24:50;6.60;99.90
7159;DHT22;63175;52.374;13.132;2023-11-18T14:27:23;6.50;99.90
7159;DHT22;63175;52.374;13.132;2023-11-18T14:29:50;6.50;99.90
7159;DHT22;63175;52.374;13.132;2023-11-18T14:32:17;6.40;99.90
7159;DHT22;63175;52.374;13.132;2023-11-18T14:34:52;6.40;99.90
7159;DHT22;63175;52.374;13.132;2023-11-18T14:37:19;6.40;99.90
7159;DHT22;63175;52.374;13.132;2023-11-18T14:39:49;6.30;99.90
7159;DHT22;63175;52.374;13.132;2023-11-18T14:42:20;6.30;99.90
7159;DHT22;63175;52.374;13.132;2023-11-18T14:44:49;6.20;99.90
7159;DHT22;63175;52.374;13.132;2023-11-18T14:47:16;6.20;99.90
7159;DHT22;63175;52.374;13.132;2023-11-18T14:49:43;6.10;99.90
7159;DHT22;63175;52.374;13.132;2023-11-18T14:52:10;6.10;99.90
7159;DHT22;63175;52.374;13.132;2023-11-18T14:54:37;6.10;99.90
7159;DHT22;63175;52.374;13.132;2023-11-18T14:57:04;6.00;99.90
7159;DHT22;63175;52.374;13.132;2023-11-18T14:59:31;6.00;99.90
7159;DHT22;63175;52.374;13.132;2023-11-18T15:02:00;6.00;99.90
7159;DHT22;63175;52.374;13.132;2023-11-18T15:04:27;5.90;99.90
7159;DHT22;63175;52.374;13.132;2023-11-18T15:06:54;5.90;99.90
7159;DHT22;63175;52.374;13.132;2023-11-18T15:09:21;5.90;99.90
7159;DHT22;63175;52.374;13.132;2023-11-18T15:11:49;5.80;99.90
7159;DHT22;63175;52.374;13.132;2023-11-18T15:14:19;5.80;99.90
7159;DHT22;63175;52.374;13.132;2023-11-18T15:16:45;5.80;99.90
7159;DHT22;63175;52.374;13.132;2023-11-18T15:19:14;5.70;99.90
7159;DHT22;63175;52.374;13.132;2023-11-18T15:21:41;5.70;99.90
7159;DHT22;63175;52.374;13.132;2023-11-18T15:24:08;5.70;99.90
7159;DHT22;63175;52.374;13.132;2023-11-18T15:26:35;5.60;99.90
7159;DHT22;63175;52.374;13.132;2023-11-18T15:29:02;5.60;99.90
7159;DHT22;63175;52.374;13.132;2023-11-18T15:31:35;5.60;99.90
7159;DHT22;63175;52.374;13.132;2023-11-18T15:34:02;5.60;99.90
7159;DHT22;63175;52.374;13.132;2023-11-18T15:36:30;5.60;99.90
7159;DHT22;63175;52.374;13.132;2023-11-18T15:38:57;5.60;99.90
7159;DHT22;63175;52.374;13.132;2023-11-18T15:41:28;5.60;99.90
7159;DHT22;63175;52.374;13.132;2023-11-18T15:43:56;5.50;99.90
7159;DHT22;63175;52.374;13.132;2023-11-18T15:46:22;5.50;99.90
7159;DHT22;63175;52.374;13.132;2023-11-18T15:48:49;5.50;99.90
7159;DHT22;63175;52.374;13.132;2023-11-18T15:51:17;5.50;99.90
7159;DHT22;63175;52.374;13.132;2023-11-18T15:53:47;5.40;99.90
7159;DHT22;63175;52.374;13.132;2023-11-18T15:56:14;5.40;99.90
7159;DHT22;63175;52.374;13.132;2023-11-18T15:58:42;5.40;99.90
7159;DHT22;63175;52.374;13.132;2023-11-18T16:01:09;5.30;99.90
7159;DHT22;63175;52.374;13.132;2023-11-18T16:03:36;5.30;99.90
7159;DHT22;63175;52.374;13.132;2023-11-18T16:06:03;5.30;99.90